Observation data for Tulia on 12/08/2018      Previous  Date       Current Mesonet Observations  Soil Data  Daily Summary Page  Observations in Plain Language
KTIS 080600Z 04008KT M01/M03 A303 RMK A01 T10071028  RH  087%=      5-min Rain = 0
KTIS 080605Z 05008KT M01/M03 A303 RMK A01 T10081028  RH  086%=      5-min Rain = 0
KTIS 080610Z 04009KT M01/M03 A3029 RMK A01 T10081028  RH  087%=      5-min Rain = 0
KTIS 080615Z 04009KT M01/M03 A3029 RMK A01 T10081027  RH  088%=      5-min Rain = 0
KTIS 080620Z 04009KT M01/M03 A3029 RMK A01 T10091027  RH  088%=      5-min Rain = 0
KTIS 080625Z 04008KT M01/M03 A3029 RMK A01 T10091026  RH  089%=      5-min Rain = 0
KTIS 080630Z 04010KT M01/M03 A3029 RMK A01 T10091025  RH  090%=      5-min Rain = 0
KTIS 080635Z 04010KT M01/M03 A3029 RMK A01 T10101025  RH  090%=      5-min Rain = 0
KTIS 080640Z 04009KT M01/M02 A3028 RMK A01 T10101024  RH  091%=      5-min Rain = 0
KTIS 080645Z 04010KT M01/M02 A3028 RMK A01 T10111024  RH  091%=      5-min Rain = 0
KTIS 080650Z 04009KT M01/M02 A3028 RMK A01 T10111024  RH  091%=      5-min Rain = 0
KTIS 080655Z 03009KT M01/M02 A3028 RMK A01 T10111024  RH  091%=      5-min Rain = 0
KTIS 080700Z 03008KT M01/M02 A3028 RMK A01 T10111024  RH  091%=      5-min Rain = 0
KTIS 080705Z 03009KT M01/M02 A3028 RMK A01 T10111024  RH  092%=      5-min Rain = 0
KTIS 080710Z 04008KT M01/M02 A3028 RMK A01 T10121023  RH  092%=      5-min Rain = 0
KTIS 080715Z 03007KT M01/M02 A3028 RMK A01 T10121023  RH  093%=      5-min Rain = 0
KTIS 080720Z 02007KT M01/M02 A3028 RMK A01 T10121023  RH  093%=      5-min Rain = 0
KTIS 080725Z 03008KT M01/M02 A3028 RMK A01 T10121022  RH  093%=      5-min Rain = 0
KTIS 080730Z 03006KT M01/M02 A3027 RMK A01 T10121022  RH  093%=      5-min Rain = 0
KTIS 080735Z 02007KT M01/M02 A3028 RMK A01 T10121022  RH  094%=      5-min Rain = 0
KTIS 080740Z 02006KT M01/M02 A3028 RMK A01 T10121021  RH  094%=      5-min Rain = 0
KTIS 080745Z 02007KT M01/M02 A3028 RMK A01 T10111020  RH  094%=      5-min Rain = 0
KTIS 080750Z 02008KT M01/M02 A3028 RMK A01 T10121021  RH  094%=      5-min Rain = 0
KTIS 080755Z 02007KT M01/M02 A3028 RMK A01 T10121021  RH  094%=      5-min Rain = 0
KTIS 080800Z 03007KT M01/M02 A3027 RMK A01 T10121021  RH  095%=      5-min Rain = 0
KTIS 080805Z 02007KT M01/M02 A3027 RMK A01 T10121021  RH  095%=      5-min Rain = 0
KTIS 080810Z 02008KT M01/M02 A3027 RMK A01 T10131021  RH  095%=      5-min Rain = 0
KTIS 080815Z 02008KT M01/M02 A3027 RMK A01 T10131021  RH  095%=      5-min Rain = 0
KTIS 080820Z 03007KT M01/M02 A3027 RMK A01 T10121020  RH  095%=      5-min Rain = 0
KTIS 080825Z 02006KT M01/M02 A3027 RMK A01 T10121020  RH  095%=      5-min Rain = 0
KTIS 080830Z 02007KT M01/M02 A3027 RMK A01 T10121020  RH  095%=      5-min Rain = 0
KTIS 080835Z 02007KT M01/M02 A3027 RMK A01 T10121020  RH  095%=      5-min Rain = 0
KTIS 080840Z 02008KT M01/M02 A3027 RMK A01 T10121020  RH  095%=      5-min Rain = 0
KTIS 080845Z 02008KT M01/M02 A3027 RMK A01 T10121020  RH  095%=      5-min Rain = 0
KTIS 080850Z 02006KT M01/M02 A3027 RMK A01 T10121020  RH  095%=      5-min Rain = 0
KTIS 080855Z 01006KT M01/M02 A3027 RMK A01 T10111020  RH  095%=      5-min Rain = 0
KTIS 080900Z 01004KT M01/M02 A3027 RMK A01 T10111020  RH  095%=      5-min Rain = 0
KTIS 080905Z 00006KT M01/M02 A3027 RMK A01 T10111019  RH  095%=      5-min Rain = 0
KTIS 080910Z 00007KT M01/M02 A3027 RMK A01 T10111019  RH  095%=      5-min Rain = 0
KTIS 080915Z 01007KT M01/M02 A3027 RMK A01 T10111020  RH  095%=      5-min Rain = 0
KTIS 080920Z 01007KT M01/M02 A3027 RMK A01 T10121020  RH  095%=      5-min Rain = 0
KTIS 080925Z 01007KT M01/M02 A3027 RMK A01 T10121020  RH  095%=      5-min Rain = 0
KTIS 080930Z 00007KT M01/M02 A3026 RMK A01 T10121020  RH  095%=      5-min Rain = 0
KTIS 080935Z 01008KT M01/M02 A3026 RMK A01 T10121021  RH  095%=      5-min Rain = 0
KTIS 080940Z 01008KT M01/M02 A3026 RMK A01 T10121021  RH  095%=      5-min Rain = 0
KTIS 080945Z 01007KT M01/M02 A3026 RMK A01 T10121021  RH  095%=      5-min Rain = 0
KTIS 080950Z 01007KT M01/M02 A3025 RMK A01 T10121021  RH  095%=      5-min Rain = 0
KTIS 080955Z 01007KT M01/M02 A3026 RMK A01 T10121021  RH  095%=      5-min Rain = 0
KTIS 081000Z 01008KT M01/M02 A3025 RMK A01 T10131021  RH  095%=      5-min Rain = 0
KTIS 081005Z 00009KT M01/M02 A3025 RMK A01 T10141022  RH  095%=      5-min Rain = 0
KTIS 081010Z 00009KT M01/M02 A3025 RMK A01 T10141022  RH  095%=      5-min Rain = 0
KTIS 081015Z 00009KT M01/M02 A3025 RMK A01 T10141022  RH  095%=      5-min Rain = 0
KTIS 081020Z 36008KT M01/M02 A3025 RMK A01 T10141022  RH  095%=      5-min Rain = 0
KTIS 081025Z 00008KT M01/M02 A3025 RMK A01 T10141022  RH  095%=      5-min Rain = 0
KTIS 081030Z 36009KT M01/M02 A3025 RMK A01 T10141022  RH  096%=      5-min Rain = 0
KTIS 081035Z 00011KT M01/M02 A3025 RMK A01 T10141022  RH  096%=      5-min Rain = 0
KTIS 081040Z 36008KT M01/M02 A3025 RMK A01 T10141021  RH  096%=      5-min Rain = 0
KTIS 081045Z 36010KT M02/M02 A3024 RMK A01 T10151022  RH  096%=      5-min Rain = 0
KTIS 081050Z 36008KT M01/M02 A3024 RMK A01 T10141021  RH  096%=      5-min Rain = 0
KTIS 081055Z 36009KT M01/M02 A3024 RMK A01 T10141021  RH  096%=      5-min Rain = 0
KTIS 081100Z 35008KT M01/M02 A3024 RMK A01 T10141021  RH  096%=      5-min Rain = 0
KTIS 081105Z 35008KT M01/M02 A3024 RMK A01 T10141021  RH  096%=      5-min Rain = 0
KTIS 081110Z 35007KT M01/M02 A3024 RMK A01 T10141021  RH  096%=      5-min Rain = 0
KTIS 081115Z 35008KT M02/M02 A3024 RMK A01 T10151021  RH  096%=      5-min Rain = 0
KTIS 081120Z 35008KT M02/M02 A3024 RMK A01 T10151022  RH  096%=      5-min Rain = 0
KTIS 081125Z 35008KT M02/M02 A3024 RMK A01 T10151022  RH  096%=      5-min Rain = 0
KTIS 081130Z 35008KT M02/M02 A3025 RMK A01 T10151022  RH  096%=      5-min Rain = 0
KTIS 081135Z 35008KT M02/M02 A3025 RMK A01 T10161022  RH  096%=      5-min Rain = 0
KTIS 081140Z 35008KT M02/M02 A3025 RMK A01 T10161022  RH  096%=      5-min Rain = 0
KTIS 081145Z 35009KT M02/M02 A3025 RMK A01 T10161023  RH  096%=      5-min Rain = 0
KTIS 081150Z 35009KT M02/M02 A3025 RMK A01 T10161023  RH  096%=      5-min Rain = 0
KTIS 081155Z 35010KT M02/M02 A3025 RMK A01 T10171023  RH  096%=      5-min Rain = 0
KTIS 081200Z 35009KT M02/M02 A3025 RMK A01 T10171024  RH  096%=      5-min Rain = 0
KTIS 081205Z 35009KT M02/M02 A3025 RMK A01 T10171023  RH  096%=      5-min Rain = 0
KTIS 081210Z 35008KT M02/M02 A3025 RMK A01 T10171023  RH  096%=      5-min Rain = 0
KTIS 081215Z 35010KT M02/M02 A3025 RMK A01 T10171023  RH  096%=      5-min Rain = 0
KTIS 081220Z 35008KT M02/M02 A3025 RMK A01 T10171023  RH  096%=      5-min Rain = 0
KTIS 081225Z 35008KT M02/M02 A3025 RMK A01 T10171023  RH  096%=      5-min Rain = 0
KTIS 081230Z 35009KT M02/M02 A3025 RMK A01 T10171023  RH  096%=      5-min Rain = 0
KTIS 081235Z 35008KT M02/M02 A3025 RMK A01 T10171023  RH  096%=      5-min Rain = 0
KTIS 081240Z 35008KT M02/M02 A3026 RMK A01 T10171023  RH  096%=      5-min Rain = 0
KTIS 081245Z 36009KT M02/M02 A3025 RMK A01 T10171024  RH  096%=      5-min Rain = 0
KTIS 081250Z 36009KT M02/M02 A3026 RMK A01 T10171024  RH  096%=      5-min Rain = 0
KTIS 081255Z 36009KT M02/M02 A3026 RMK A01 T10181024  RH  096%=      5-min Rain = 0
KTIS 081300Z 00009KT M02/M02 A3025 RMK A01 T10181024  RH  096%=      5-min Rain = 0
KTIS 081305Z 00009KT M02/M02 A3026 RMK A01 T10181024  RH  096%=      5-min Rain = 0
KTIS 081310Z 00008KT M02/M02 A3026 RMK A01 T10181024  RH  096%=      5-min Rain = 0
KTIS 081315Z 36007KT M02/M02 A3026 RMK A01 T10181024  RH  096%=      5-min Rain = 0
KTIS 081320Z 36008KT M02/M02 A3026 RMK A01 T10181024  RH  096%=      5-min Rain = 0
KTIS 081325Z 36007KT M02/M02 A3026 RMK A01 T10181024  RH  096%=      5-min Rain = 0
KTIS 081330Z 36008KT M02/M02 A3026 RMK A01 T10181024  RH  096%=      5-min Rain = 0
KTIS 081335Z 36008KT M02/M02 A3026 RMK A01 T10181024  RH  096%=      5-min Rain = 0
KTIS 081340Z 36008KT M02/M02 A3027 RMK A01 T10181024  RH  096%=      5-min Rain = 0
KTIS 081345Z 36008KT M02/M02 A3027 RMK A01 T10171024  RH  096%=      5-min Rain = 0
KTIS 081350Z 36008KT M02/M02 A3027 RMK A01 T10171024  RH  096%=      5-min Rain = 0
KTIS 081355Z 00008KT M02/M02 A3027 RMK A01 T10171024  RH  096%=      5-min Rain = 0
KTIS 081400Z 36008KT M02/M02 A3028 RMK A01 T10161023  RH  096%=      5-min Rain = 0
KTIS 081405Z 36009KT M02/M02 A3028 RMK A01 T10161024  RH  096%=      5-min Rain = 0
KTIS 081410Z 36008KT M02/M02 A3028 RMK A01 T10161023  RH  096%=      5-min Rain = 0
KTIS 081415Z 00007KT M02/M02 A3028 RMK A01 T10161023  RH  095%=      5-min Rain = 0
KTIS 081420Z 01007KT M02/M02 A3028 RMK A01 T10161023  RH  095%=      5-min Rain = 0
KTIS 081425Z 00007KT M02/M02 A3029 RMK A01 T10161024  RH  095%=      5-min Rain = 0
KTIS 081430Z 00007KT M02/M02 A3029 RMK A01 T10161024  RH  095%=      5-min Rain = 0
KTIS 081435Z 00008KT M02/M02 A3029 RMK A01 T10161024  RH  095%=      5-min Rain = 0
KTIS 081440Z 36007KT M02/M02 A3029 RMK A01 T10161024  RH  095%=      5-min Rain = 0
KTIS 081445Z 36008KT M02/M02 A303 RMK A01 T10161024  RH  095%=      5-min Rain = 0
KTIS 081450Z 00008KT M02/M02 A303 RMK A01 T10161024  RH  095%=      5-min Rain = 0
KTIS 081455Z 36007KT M02/M02 A303 RMK A01 T10161024  RH  095%=      5-min Rain = 0
KTIS 081500Z 35007KT M02/M02 A303 RMK A01 T10161024  RH  095%=      5-min Rain = 0
KTIS 081505Z 35008KT M02/M03 A303 RMK A01 T10161025  RH  094%=      5-min Rain = 0
KTIS 081510Z 35008KT M02/M03 A3031 RMK A01 T10161026  RH  094%=      5-min Rain = 0
KTIS 081515Z 35007KT M02/M03 A3031 RMK A01 T10151026  RH  093%=      5-min Rain = 0
KTIS 081520Z 35008KT M02/M03 A3031 RMK A01 T10151026  RH  093%=      5-min Rain = 0
KTIS 081525Z 35009KT M02/M03 A3031 RMK A01 T10151028  RH  092%=      5-min Rain = 0
KTIS 081530Z 36008KT M02/M03 A3031 RMK A01 T10151028  RH  092%=      5-min Rain = 0
KTIS 081535Z 00008KT M02/M03 A3031 RMK A01 T10151028  RH  091%=      5-min Rain = 0
KTIS 081540Z 36008KT M02/M03 A3031 RMK A01 T10151030  RH  091%=      5-min Rain = 0
KTIS 081545Z 36008KT M02/M03 A3031 RMK A01 T10161031  RH  090%=      5-min Rain = 0
KTIS 081550Z 36007KT M02/M03 A3031 RMK A01 T10161031  RH  090%=      5-min Rain = 0
KTIS 081555Z 35007KT M02/M03 A3031 RMK A01 T10161031  RH  090%=      5-min Rain = 0
KTIS 081600Z 35006KT M02/M03 A3031 RMK A01 T10151031  RH  090%=      5-min Rain = 0
KTIS 081605Z 34007KT M02/M03 A3031 RMK A01 T10151032  RH  089%=      5-min Rain = 0
KTIS 081610Z 34007KT M02/M03 A3031 RMK A01 T10161032  RH  089%=      5-min Rain = 0
KTIS 081615Z 34007KT M02/M03 A3031 RMK A01 T10151033  RH  089%=      5-min Rain = 0
KTIS 081620Z 35007KT M02/M03 A3031 RMK A01 T10151033  RH  088%=      5-min Rain = 0
KTIS 081625Z 34006KT M01/M03 A3031 RMK A01 T10141032  RH  088%=      5-min Rain = 0
KTIS 081630Z 33007KT M01/M03 A3032 RMK A01 T10131033  RH  087%=      5-min Rain = 0
KTIS 081635Z 33007KT M01/M03 A3032 RMK A01 T10131034  RH  086%=      5-min Rain = 0
KTIS 081640Z 34007KT M01/M03 A3032 RMK A01 T10121033  RH  086%=      5-min Rain = 0
KTIS 081645Z 34007KT M01/M03 A3032 RMK A01 T10121033  RH  086%=      5-min Rain = 0
KTIS 081650Z 34007KT M01/M04 A3031 RMK A01 T10111035  RH  085%=      5-min Rain = 0
KTIS 081655Z 35006KT M01/M03 A3031 RMK A01 T10111034  RH  084%=      5-min Rain = 0
KTIS 081700Z 34007KT M01/M04 A3031 RMK A01 T10101035  RH  084%=      5-min Rain = 0
KTIS 081705Z 34008KT M01/M04 A3031 RMK A01 T10101035  RH  083%=      5-min Rain = 0
KTIS 081710Z 34007KT M01/M04 A3031 RMK A01 T10091036  RH  082%=      5-min Rain = 0
KTIS 081715Z 34007KT M01/M04 A3031 RMK A01 T10091036  RH  082%=      5-min Rain = 0
KTIS 081720Z 33007KT M01/M04 A3031 RMK A01 T10081035  RH  082%=      5-min Rain = 0
KTIS 081725Z 33007KT M01/M04 A3031 RMK A01 T10071036  RH  081%=      5-min Rain = 0
KTIS 081730Z 33007KT M01/M04 A3031 RMK A01 T10071038  RH  080%=      5-min Rain = 0.01
KTIS 081735Z 34007KT M01/M04 A3031 RMK A01 T10071037  RH  080%=      5-min Rain = 0
KTIS 081740Z 35006KT M01/M04 A3031 RMK A01 T10061036  RH  081%=      5-min Rain = 0
KTIS 081745Z 35006KT M01/M04 A3031 RMK A01 T10061035  RH  081%=      5-min Rain = 0.03
KTIS 081750Z 35006KT M01/M04 A303 RMK A01 T10061037  RH  080%=      5-min Rain = 0.03
KTIS 081755Z 00004KT M01/M04 A303 RMK A01 T10051035  RH  080%=      5-min Rain = 0.02
KTIS 081800Z 03004KT M00/M04 A303 RMK A01 T10041036  RH  079%=      5-min Rain = 0.02
KTIS 081805Z 03004KT M01/M04 A303 RMK A01 T10051037  RH  079%=      5-min Rain = 0.02
KTIS 081810Z 03004KT M01/M04 A303 RMK A01 T10051038  RH  079%=      5-min Rain = 0
KTIS 081815Z 05004KT M00/M04 A3029 RMK A01 T10041036  RH  080%=      5-min Rain = 0.02
KTIS 081820Z 05005KT M00/M04 A3029 RMK A01 T10041037  RH  079%=      5-min Rain = 0
KTIS 081825Z 04004KT M00/M04 A3029 RMK A01 T10041037  RH  079%=      5-min Rain = 0.01
KTIS 081830Z 04004KT M00/M04 A3029 RMK A01 T10041037  RH  078%=      5-min Rain = 0.01
KTIS 081835Z 04003KT M00/M04 A3029 RMK A01 T10031037  RH  079%=      5-min Rain = 0
KTIS 081840Z 05004KT M00/M04 A3028 RMK A01 T10031039  RH  077%=      5-min Rain = 0
KTIS 081845Z 05004KT M00/M04 A3028 RMK A01 T10031038  RH  078%=      5-min Rain = 0
KTIS 081850Z 07004KT M00/M04 A3027 RMK A01 T10031039  RH  077%=      5-min Rain = 0
KTIS 081855Z 07003KT M00/M04 A3028 RMK A01 T10031040  RH  076%=      5-min Rain = 0
KTIS 081900Z 05002KT M00/M04 A3027 RMK A01 T10021039  RH  076%=      5-min Rain = 0
KTIS 081905Z 07002KT M00/M04 A3027 RMK A01 T10011040  RH  076%=      5-min Rain = 0
KTIS 081910Z 06003KT M00/M04 A3027 RMK A01 T10021040  RH  076%=      5-min Rain = 0
KTIS 081915Z 03002KT M00/M04 A3027 RMK A01 T10011038  RH  076%=      5-min Rain = 0
KTIS 081920Z 04002KT M00/M04 A3027 RMK A01 T10011039  RH  076%=      5-min Rain = 0
KTIS 081925Z 04002KT M00/M04 A3026 RMK A01 T10011039  RH  076%=      5-min Rain = 0
KTIS 081930Z 06002KT 00/04 A3026 RMK A01 T00-00-39  RH  075%=      5-min Rain = 0
KTIS 081935Z 07002KT 00/M04 A3026 RMK A01 T00011037  RH  076%=      5-min Rain = 0
KTIS 081940Z 04002KT 00/M04 A3026 RMK A01 T00021037  RH  076%=      5-min Rain = 0
KTIS 081945Z 06002KT 00/M04 A3026 RMK A01 T00021038  RH  075%=      5-min Rain = 0
KTIS 081950Z 04002KT 00/M04 A3026 RMK A01 T00011038  RH  075%=      5-min Rain = 0
KTIS 081955Z 05002KT 00/M04 A3025 RMK A01 T00021036  RH  076%=      5-min Rain = 0
KTIS 082000Z 05002KT 00/M04 A3025 RMK A01 T00021037  RH  075%=      5-min Rain = 0
KTIS 082005Z 04002KT 00/M04 A3025 RMK A01 T00021037  RH  075%=      5-min Rain = 0
KTIS 082010Z 04002KT 00/M04 A3025 RMK A01 T00031035  RH  076%=      5-min Rain = 0
KTIS 082015Z 05001KT 00/M04 A3025 RMK A01 T00031035  RH  076%=      5-min Rain = 0
KTIS 082020Z 04001KT 01/M03 A3025 RMK A01 T00061031  RH  076%=      5-min Rain = 0
KTIS 082025Z 04001KT 01/M03 A3024 RMK A01 T00061034  RH  075%=      5-min Rain = 0
KTIS 082030Z 06001KT 01/M03 A3024 RMK A01 T00081029  RH  077%=      5-min Rain = 0
KTIS 082035Z 08001KT 01/M03 A3024 RMK A01 T00091029  RH  076%=      5-min Rain = 0
KTIS 082040Z 08001KT 01/M03 A3024 RMK A01 T00091030  RH  076%=      5-min Rain = 0
KTIS 082045Z 10002KT 01/M03 A3023 RMK A01 T00091029  RH  077%=      5-min Rain = 0
KTIS 082050Z 11002KT 01/M03 A3023 RMK A01 T00081028  RH  077%=      5-min Rain = 0
KTIS 082055Z 12002KT 01/M03 A3023 RMK A01 T00101025  RH  078%=      5-min Rain = 0
KTIS 082100Z 13002KT 01/M03 A3023 RMK A01 T00101028  RH  076%=      5-min Rain = 0
KTIS 082105Z 13002KT 01/M03 A3023 RMK A01 T00101029  RH  076%=      5-min Rain = 0
KTIS 082110Z 15001KT 01/M03 A3023 RMK A01 T00131025  RH  076%=      5-min Rain = 0
KTIS 082115Z 16002KT 02/M03 A3023 RMK A01 T00181025  RH  074%=      5-min Rain = 0
KTIS 082120Z 16002KT 02/M02 A3023 RMK A01 T00191024  RH  074%=      5-min Rain = 0
KTIS 082125Z 15002KT 02/M02 A3023 RMK A01 T00231021  RH  073%=      5-min Rain = 0
KTIS 082130Z 13002KT 02/M02 A3023 RMK A01 T00221023  RH  073%=      5-min Rain = 0
KTIS 082135Z 13002KT 03/M02 A3023 RMK A01 T00271022  RH  071%=      5-min Rain = 0
KTIS 082140Z 09001KT 02/M02 A3023 RMK A01 T00241022  RH  072%=      5-min Rain = 0
KTIS 082145Z 05001KT 03/M02 A3023 RMK A01 T00251024  RH  071%=      5-min Rain = 0
KTIS 082150Z 03000KT 03/M02 A3022 RMK A01 T00261023  RH  071%=      5-min Rain = 0
KTIS 082155Z 07001KT 03/M02 A3022 RMK A01 T00261022  RH  071%=      5-min Rain = 0
KTIS 082200Z 11001KT 03/M02 A3022 RMK A01 T00251022  RH  072%=      5-min Rain = 0
KTIS 082205Z 06002KT 03/M02 A3022 RMK A01 T00251022  RH  072%=      5-min Rain = 0
KTIS 082210Z 05001KT 02/M02 A3022 RMK A01 T00241023  RH  072%=      5-min Rain = 0
KTIS 082215Z 05000KT 03/M02 A3022 RMK A01 T00261024  RH  070%=      5-min Rain = 0
KTIS 082220Z 03000KT 03/M02 A3022 RMK A01 T00291024  RH  069%=      5-min Rain = 0
KTIS 082225Z 06000KT 04/M02 A3022 RMK A01 T00351022  RH  067%=      5-min Rain = 0
KTIS 082230Z 16003KT 03/M02 A3022 RMK A01 T00331020  RH  069%=      5-min Rain = 0
KTIS 082235Z 16003KT 03/M02 A3022 RMK A01 T00301020  RH  070%=      5-min Rain = 0
KTIS 082240Z 16003KT 03/M02 A3022 RMK A01 T00281020  RH  071%=      5-min Rain = 0
KTIS 082245Z 16002KT 03/M02 A3022 RMK A01 T00281020  RH  071%=      5-min Rain = 0
KTIS 082250Z 15003KT 03/M02 A3022 RMK A01 T00281021  RH  071%=      5-min Rain = 0
KTIS 082255Z 15006KT 02/M02 A3022 RMK A01 T00231021  RH  074%=      5-min Rain = 0
KTIS 082300Z 16005KT 02/M02 A3022 RMK A01 T00191020  RH  076%=      5-min Rain = 0
KTIS 082305Z 16005KT 02/M02 A3022 RMK A01 T00171021  RH  077%=      5-min Rain = 0
KTIS 082310Z 15005KT 02/M02 A3022 RMK A01 T00151021  RH  078%=      5-min Rain = 0
KTIS 082315Z 15004KT 01/M02 A3023 RMK A01 T00121022  RH  078%=      5-min Rain = 0
KTIS 082320Z 16004KT 01/M02 A3023 RMK A01 T00101022  RH  080%=      5-min Rain = 0
KTIS 082325Z 16005KT 01/M02 A3023 RMK A01 T00061024  RH  081%=      5-min Rain = 0
KTIS 082330Z 17004KT 00/M02 A3023 RMK A01 T00031024  RH  082%=      5-min Rain = 0
KTIS 082335Z 17004KT 00/M03 A3023 RMK A01 T00011026  RH  083%=      5-min Rain = 0
KTIS 082340Z 18004KT M00/M03 A3023 RMK A01 T10011027  RH  083%=      5-min Rain = 0
KTIS 082345Z 18004KT M00/M03 A3023 RMK A01 T10031028  RH  084%=      5-min Rain = 0
KTIS 082350Z 18004KT M00/M03 A3023 RMK A01 T10041028  RH  085%=      5-min Rain = 0
KTIS 082355Z 18003KT M00/M03 A3023 RMK A01 T10041028  RH  085%=      5-min Rain = 0
KTIS 090000Z 18003KT M00/M03 A3023 RMK A01 T10041029  RH  084%=      5-min Rain = 0
KTIS 090005Z 18002KT M01/M03 A3023 RMK A01 T10071030  RH  085%=      5-min Rain = 0
KTIS 090010Z 18002KT M01/M03 A3024 RMK A01 T10081032  RH  084%=      5-min Rain = 0
KTIS 090015Z 18002KT M01/M03 A3024 RMK A01 T10071030  RH  085%=      5-min Rain = 0
KTIS 090020Z 18002KT M01/M03 A3024 RMK A01 T10081029  RH  086%=      5-min Rain = 0
KTIS 090025Z 19003KT M01/M03 A3024 RMK A01 T10091031  RH  086%=      5-min Rain = 0
KTIS 090030Z 20004KT M01/M03 A3024 RMK A01 T10111031  RH  087%=      5-min Rain = 0
KTIS 090035Z 21004KT M01/M03 A3024 RMK A01 T10121031  RH  088%=      5-min Rain = 0
KTIS 090040Z 21004KT M01/M03 A3024 RMK A01 T10121031  RH  088%=      5-min Rain = 0
KTIS 090045Z 21004KT M01/M03 A3025 RMK A01 T10131031  RH  088%=      5-min Rain = 0
KTIS 090050Z 22004KT M01/M03 A3025 RMK A01 T10131031  RH  088%=      5-min Rain = 0
KTIS 090055Z 22004KT M01/M03 A3025 RMK A01 T10141031  RH  088%=      5-min Rain = 0
KTIS 090100Z 22004KT M01/M03 A3025 RMK A01 T10141032  RH  089%=      5-min Rain = 0
KTIS 090105Z 22004KT M02/M03 A3025 RMK A01 T10151031  RH  089%=      5-min Rain = 0
KTIS 090110Z 22003KT M02/M03 A3025 RMK A01 T10151032  RH  089%=      5-min Rain = 0
KTIS 090115Z 22003KT M02/M03 A3025 RMK A01 T10161033  RH  089%=      5-min Rain = 0
KTIS 090120Z 22003KT M02/M03 A3025 RMK A01 T10161032  RH  089%=      5-min Rain = 0
KTIS 090125Z 22003KT M02/M03 A3026 RMK A01 T10151031  RH  089%=      5-min Rain = 0
KTIS 090130Z 22003KT M02/M03 A3026 RMK A01 T10161032  RH  089%=      5-min Rain = 0
KTIS 090135Z 22003KT M02/M03 A3026 RMK A01 T10171033  RH  089%=      5-min Rain = 0
KTIS 090140Z 21002KT M02/M04 A3026 RMK A01 T10201037  RH  089%=      5-min Rain = 0
KTIS 090145Z 19002KT M02/M04 A3026 RMK A01 T10221037  RH  090%=      5-min Rain = 0
KTIS 090150Z 11001KT M02/M04 A3026 RMK A01 T10211035  RH  091%=      5-min Rain = 0
KTIS 090155Z 10002KT M03/M04 A3026 RMK A01 T10251040  RH  090%=      5-min Rain = 0
KTIS 090200Z 09003KT M03/M04 A3026 RMK A01 T10291043  RH  091%=      5-min Rain = 0
KTIS 090205Z 09003KT M03/M04 A3026 RMK A01 T10281040  RH  092%=      5-min Rain = 0
KTIS 090210Z 09003KT M03/M04 A3026 RMK A01 T10271038  RH  092%=      5-min Rain = 0
KTIS 090215Z 09002KT M03/M04 A3027 RMK A01 T10261038  RH  092%=      5-min Rain = 0
KTIS 090220Z 10003KT M03/M04 A3027 RMK A01 T10271038  RH  092%=      5-min Rain = 0
KTIS 090225Z 11003KT M03/M04 A3027 RMK A01 T10281040  RH  092%=      5-min Rain = 0
KTIS 090230Z 12003KT M03/M04 A3027 RMK A01 T10301042  RH  092%=      5-min Rain = 0
KTIS 090235Z 12002KT M03/M04 A3027 RMK A01 T10301042  RH  092%=      5-min Rain = 0
KTIS 090240Z 12002KT M03/M04 A3027 RMK A01 T10291041  RH  093%=      5-min Rain = 0
KTIS 090245Z 12001KT M03/M04 A3027 RMK A01 T10311043  RH  092%=      5-min Rain = 0
KTIS 090250Z 12001KT M03/M04 A3027 RMK A01 T10331044  RH  092%=      5-min Rain = 0
KTIS 090255Z 12001KT M03/M04 A3027 RMK A01 T10331043  RH  093%=      5-min Rain = 0
KTIS 090300Z 12001KT M03/M04 A3027 RMK A01 T10321043  RH  093%=      5-min Rain = 0
KTIS 090305Z 12000KT M03/M04 A3027 RMK A01 T10321043  RH  093%=      5-min Rain = 0
KTIS 090310Z 00000KT M03/M04 A3027 RMK A01 T10331043  RH  093%=      5-min Rain = 0
KTIS 090315Z 00000KT M03/M05 A3027 RMK A01 T10341045  RH  092%=      5-min Rain = 0
KTIS 090320Z 18001KT M04/M05 A3027 RMK A01 T10351046  RH  093%=      5-min Rain = 0
KTIS 090325Z 18002KT M04/M05 A3027 RMK A01 T10361046  RH  093%=      5-min Rain = 0
KTIS 090330Z 20004KT M04/M05 A3028 RMK A01 T10361046  RH  093%=      5-min Rain = 0
KTIS 090335Z 20005KT M04/M04 A3028 RMK A01 T10351044  RH  093%=      5-min Rain = 0
KTIS 090340Z 22005KT M03/M04 A3028 RMK A01 T10341044  RH  093%=      5-min Rain = 0
KTIS 090345Z 23006KT M03/M05 A3028 RMK A01 T10341045  RH  093%=      5-min Rain = 0
KTIS 090350Z 24005KT M03/M04 A3028 RMK A01 T10341044  RH  093%=      5-min Rain = 0
KTIS 090355Z 24005KT M04/M05 A3028 RMK A01 T10351046  RH  092%=      5-min Rain = 0
KTIS 090400Z 24005KT M04/M05 A3028 RMK A01 T10361047  RH  092%=      5-min Rain = 0
KTIS 090405Z 24005KT M04/M05 A3028 RMK A01 T10361047  RH  092%=      5-min Rain = 0
KTIS 090410Z 24004KT M04/M05 A3028 RMK A01 T10351047  RH  092%=      5-min Rain = 0
KTIS 090415Z 25005KT M04/M05 A3028 RMK A01 T10351047  RH  092%=      5-min Rain = 0
KTIS 090420Z 25005KT M04/M05 A3028 RMK A01 T10351046  RH  092%=      5-min Rain = 0
KTIS 090425Z 26004KT M04/M05 A3028 RMK A01 T10351047  RH  092%=      5-min Rain = 0
KTIS 090430Z 26005KT M04/M05 A3029 RMK A01 T10361048  RH  092%=      5-min Rain = 0
KTIS 090435Z 26006KT M03/M04 A3029 RMK A01 T10331043  RH  093%=      5-min Rain = 0
KTIS 090440Z 26006KT M03/M04 A3029 RMK A01 T10301041  RH  093%=      5-min Rain = 0
KTIS 090445Z 26006KT M03/M04 A3029 RMK A01 T10281040  RH  092%=      5-min Rain = 0
KTIS 090450Z 26005KT M03/M04 A3029 RMK A01 T10301042  RH  092%=      5-min Rain = 0
KTIS 090455Z 25005KT M03/M04 A3029 RMK A01 T10311044  RH  091%=      5-min Rain = 0
KTIS 090500Z 25006KT M03/M04 A3029 RMK A01 T10311042  RH  092%=      5-min Rain = 0
KTIS 090505Z 25005KT M03/M04 A3029 RMK A01 T10311044  RH  092%=      5-min Rain = 0
KTIS 090510Z 25005KT M03/M04 A3029 RMK A01 T10321044  RH  092%=      5-min Rain = 0
KTIS 090515Z 25005KT M03/M04 A3029 RMK A01 T10321044  RH  092%=      5-min Rain = 0
KTIS 090520Z 25006KT M03/M05 A3029 RMK A01 T10331045  RH  092%=      5-min Rain = 0
KTIS 090525Z 25006KT M03/M04 A303 RMK A01 T10331044  RH  092%=      5-min Rain = 0
KTIS 090530Z 26007KT M03/M04 A303 RMK A01 T10321044  RH  092%=      5-min Rain = 0
KTIS 090535Z 26007KT M03/M04 A303 RMK A01 T10301042  RH  092%=      5-min Rain = 0
KTIS 090540Z 26007KT M03/M04 A303 RMK A01 T10291040  RH  092%=      5-min Rain = 0
KTIS 090545Z 26007KT M03/M04 A303 RMK A01 T10281041  RH  092%=      5-min Rain = 0
KTIS 090550Z 26007KT M03/M04 A303 RMK A01 T10291041  RH  091%=      5-min Rain = 0
KTIS 090555Z 26007KT M03/M04 A303 RMK A01 T10291041  RH  091%=      5-min Rain = 0

Page generated in 0.0097 seconds.